Time;durP1;ratioP1;P1;durP2;ratioP2;P2;SDS_P1;SDS_P2;PMS_P1;PMS_P2;Temp;Humidity;BMP_temperature;BMP_pressure;BME280_temperature;BME280_humidity;BME280_pressure;Samples;Min_cycle;Max_cycle;Signal;HPM_P1;HPM_P2
2022/06/22 00:01:26;;;;;;;5.82;2.75;;;;;;;12.43;100.00;100279.97;5078514;28;20104;-67
2022/06/22 00:03:54;;;;;;;4.68;2.38;;;;;;;12.37;100.00;100296.16;5070086;28;20088;-67
2022/06/22 00:06:36;;;;;;;7.05;2.83;;;;;;;12.08;100.00;100264.44;5088220;28;20028;-67
2022/06/22 00:09:03;;;;;;;4.13;2.33;;;;;;;12.11;100.00;100279.22;5083182;28;20039;-67
2022/06/22 00:11:28;;;;;;;6.30;3.03;;;;;;;11.89;100.00;100265.59;5089541;28;20040;-67
2022/06/22 00:13:57;;;;;;;4.97;2.95;;;;;;;11.77;100.00;100259.25;5073241;28;20017;-67
2022/06/22 00:16:27;;;;;;;6.35;2.97;;;;;;;11.69;100.00;100250.94;5072188;28;20025;-67
2022/06/22 00:18:54;;;;;;;5.22;2.42;;;;;;;11.70;100.00;100255.25;5076300;28;20024;-67
2022/06/22 00:21:28;;;;;;;4.10;2.60;;;;;;;11.73;100.00;100262.97;5081016;28;20035;-68
2022/06/22 00:23:56;;;;;;;6.80;3.10;;;;;;;11.70;100.00;100263.13;5085661;28;20436;-67
2022/06/22 00:26:24;;;;;;;7.68;3.60;;;;;;;11.70;100.00;100257.88;5067839;28;20394;-67
2022/06/22 00:29:05;;;;;;;6.32;2.97;;;;;;;11.62;100.00;100249.59;5078050;28;20438;-67
2022/06/22 00:31:42;;;;;;;5.78;3.50;;;;;;;11.52;100.00;100251.03;5070794;28;20186;-67
2022/06/22 00:34:10;;;;;;;9.73;3.40;;;;;;;11.46;100.00;100248.72;5062215;28;20537;-67
2022/06/22 00:36:38;;;;;;;5.65;3.08;;;;;;;11.47;100.00;100243.38;5091165;28;20028;-67
2022/06/22 00:39:21;;;;;;;5.38;3.35;;;;;;;11.51;100.00;100244.06;5079277;28;20020;-67
2022/06/22 00:41:58;;;;;;;8.40;4.10;;;;;;;11.60;100.00;100228.59;5077837;28;20467;-67
2022/06/22 00:44:29;;;;;;;6.05;4.13;;;;;;;11.56;100.00;100173.59;5083772;28;20029;-67
2022/06/22 00:47:07;;;;;;;12.57;4.50;;;;;;;11.85;100.00;100193.00;5072193;28;20498;-67
2022/06/22 00:49:34;;;;;;;7.93;4.82;;;;;;;12.02;100.00;100191.06;5073513;28;20047;-67
2022/06/22 00:52:08;;;;;;;7.28;4.35;;;;;;;12.24;100.00;100206.44;5059861;28;20024;-67
2022/06/22 00:54:34;;;;;;;9.32;4.40;;;;;;;12.18;100.00;100178.69;5092266;28;20039;-67
2022/06/22 00:57:07;;;;;;;6.43;4.22;;;;;;;12.39;100.00;100212.56;5091165;28;20035;-67
2022/06/22 00:59:37;;;;;;;6.15;4.07;;;;;;;12.39;100.00;100217.84;5072758;28;20020;-67
2022/06/22 01:02:04;;;;;;;5.10;3.80;;;;;;;12.37;100.00;100217.91;5046364;28;20104;-67
2022/06/22 01:04:37;;;;;;;18.08;5.38;;;;;;;12.36;100.00;100215.41;5064708;28;20036;-68
2022/06/22 01:07:20;;;;;;;5.45;3.13;;;;;;;12.26;100.00;100208.06;5047817;28;20638;-68
2022/06/22 01:10:08;;;;;;;7.80;3.80;;;;;;;12.21;100.00;100219.78;5073602;28;20032;-67
2022/06/22 01:12:33;;;;;;;5.60;4.15;;;;;;;12.10;100.00;100217.78;5039156;28;20117;-67
2022/06/22 01:15:07;;;;;;;6.65;3.30;;;;;;;11.92;100.00;100205.72;5067654;28;20163;-67
2022/06/22 01:17:43;;;;;;;7.13;3.67;;;;;;;11.79;100.00;100205.56;5076706;28;20487;-67
2022/06/22 01:20:10;;;;;;;8.73;4.53;;;;;;;11.72;100.00;100216.56;5060785;28;20039;-67
2022/06/22 01:22:57;;;;;;;6.13;3.67;;;;;;;11.68;100.00;100217.63;5075734;28;20044;-68
2022/06/22 01:25:45;;;;;;;7.90;3.85;;;;;;;11.61;100.00;100211.03;5090790;28;20032;-67
2022/06/22 01:28:12;;;;;;;7.57;4.22;;;;;;;11.50;100.00;100214.28;5049229;28;20024;-68
2022/06/22 01:30:41;;;;;;;6.32;5.07;;;;;;;11.48;100.00;100204.78;5081763;28;20524;-67
2022/06/22 01:33:34;;;;;;;9.90;5.03;;;;;;;11.51;100.00;100194.06;5073840;28;20031;-67
2022/06/22 01:36:10;;;;;;;11.52;5.60;;;;;;;11.60;100.00;100204.06;5056908;28;20040;-67
2022/06/22 01:38:38;;;;;;;9.52;4.63;;;;;;;11.62;100.00;100210.97;5080616;28;20024;-67
2022/06/22 01:41:27;;;;;;;7.18;4.38;;;;;;;11.62;100.00;100212.72;5047922;28;20032;-67
2022/06/22 01:44:11;;;;;;;10.32;5.28;;;;;;;11.67;100.00;100222.06;5074967;28;20039;-66
2022/06/22 01:46:49;;;;;;;7.60;4.97;;;;;;;11.69;100.00;100216.72;5085102;28;20124;-67
2022/06/22 01:49:20;;;;;;;10.50;4.70;;;;;;;11.66;100.00;100216.91;5067628;28;20028;-66
2022/06/22 01:51:50;;;;;;;13.00;4.55;;;;;;;11.58;100.00;100204.16;5087312;28;20052;-67
2022/06/22 01:54:25;;;;;;;7.20;4.47;;;;;;;11.43;100.00;100185.75;5068297;28;20104;-67
2022/06/22 01:56:59;;;;;;;8.25;4.40;;;;;;;11.47;100.00;100214.44;5085660;28;20015;-67
2022/06/22 01:59:34;;;;;;;6.40;3.60;;;;;;;11.41;100.00;100219.22;5068264;28;20106;-66
2022/06/22 02:02:10;;;;;;;6.05;4.18;;;;;;;11.29;100.00;100205.81;5075490;28;20399;-67
2022/06/22 02:04:55;;;;;;;7.63;4.90;;;;;;;11.26;100.00;100229.66;5069467;28;20151;-67
2022/06/22 02:10:23;;;;;;;7.90;5.75;;;;;;;11.08;100.00;100217.53;5046704;28;20410;-67
2022/06/22 02:13:00;;;;;;;5.85;4.35;;;;;;;11.02;100.00;100212.59;5067681;28;20028;-67
2022/06/22 02:15:40;;;;;;;7.35;5.15;;;;;;;11.08;100.00;100221.94;5079992;28;20032;-67
2022/06/22 02:18:10;;;;;;;6.85;5.00;;;;;;;11.06;100.00;100219.38;5065107;28;20488;-67
2022/06/22 02:20:39;;;;;;;7.85;5.15;;;;;;;11.04;100.00;100216.00;5077875;28;20035;-67
2022/06/22 02:23:19;;;;;;;8.93;6.13;;;;;;;10.97;100.00;100208.53;5082490;28;20024;-67
2022/06/22 02:26:06;;;;;;;8.70;5.40;;;;;;;10.97;100.00;100240.94;5099296;28;20114;-67
2022/06/22 02:28:31;;;;;;;7.53;5.18;;;;;;;10.94;100.00;100240.25;5071377;28;20122;-68
2022/06/22 02:30:57;;;;;;;9.75;5.20;;;;;;;10.83;100.00;100221.56;5075628;28;20112;-68
2022/06/22 02:33:23;;;;;;;9.07;6.20;;;;;;;10.80;100.00;100225.22;5063225;28;20029;-68
2022/06/22 02:35:49;;;;;;;7.60;5.25;;;;;;;10.68;100.00;100220.59;5080200;28;20029;-67
2022/06/22 02:38:15;;;;;;;8.07;4.82;;;;;;;10.59;100.00;100226.34;5063175;28;20067;-68
2022/06/22 02:46:15;;;;;;;9.50;5.07;;;;;;;10.50;100.00;100204.06;5072689;28;20039;-67
2022/06/22 02:48:42;;;;;;;9.00;5.00;;;;;;;10.51;100.00;100204.91;5078005;28;20119;-67
2022/06/22 02:51:19;;;;;;;6.63;4.25;;;;;;;10.45;100.00;100184.19;5062496;28;20035;-67
2022/06/22 02:53:45;;;;;;;8.40;4.78;;;;;;;10.39;100.00;100176.66;5061778;28;20152;-67
2022/06/22 02:56:16;;;;;;;11.50;6.03;;;;;;;10.43;100.00;100186.06;5062822;28;20415;-67
2022/06/22 02:58:43;;;;;;;13.05;6.97;;;;;;;10.49;100.00;100185.75;5068215;28;20420;-68
2022/06/22 03:01:14;;;;;;;12.15;7.45;;;;;;;10.55;100.00;100174.91;5060936;28;20072;-68
2022/06/22 03:03:45;;;;;;;8.43;6.57;;;;;;;10.62;100.00;100171.88;5092077;28;20032;-67
2022/06/22 03:06:12;;;;;;;12.45;7.45;;;;;;;10.66;100.00;100147.13;5073414;28;20063;-67
2022/06/22 03:08:38;;;;;;;8.25;6.82;;;;;;;10.75;100.00;100151.00;5073700;28;20101;-67
2022/06/22 03:11:06;;;;;;;9.23;7.32;;;;;;;10.92;100.00;100171.13;5060202;28;20028;-67
2022/06/22 03:13:31;;;;;;;10.30;7.43;;;;;;;11.00;100.00;100182.91;5042043;28;20067;-67
2022/06/22 03:15:56;;;;;;;8.88;7.93;;;;;;;11.07;100.00;100184.28;5075735;28;20453;-67
2022/06/22 03:18:29;;;;;;;9.50;6.85;;;;;;;11.07;100.00;100179.03;5072867;28;20432;-67
2022/06/22 03:21:03;;;;;;;12.05;6.35;;;;;;;10.96;100.00;100156.88;5053968;28;20028;-67
2022/06/22 03:23:57;;;;;;;16.42;6.43;;;;;;;11.02;100.00;100181.03;5072329;28;20514;-67
2022/06/22 03:26:28;;;;;;;8.82;6.13;;;;;;;10.92;100.00;100171.97;5087169;28;20021;-68
2022/06/22 03:29:16;;;;;;;9.00;6.38;;;;;;;10.92;100.00;100179.84;5074758;28;20064;-67
2022/06/22 03:31:44;;;;;;;7.43;4.97;;;;;;;10.88;100.00;100180.97;5060276;28;20032;-67
2022/06/22 03:34:15;;;;;;;8.85;5.75;;;;;;;10.92;100.00;100193.00;5061075;28;20073;-67
2022/06/22 03:36:40;;;;;;;10.35;5.35;;;;;;;10.87;100.00;100202.94;5061515;28;20497;-67
2022/06/22 03:39:14;;;;;;;8.40;5.10;;;;;;;10.79;100.00;100205.13;5077025;28;20032;-67
2022/06/22 03:41:43;;;;;;;9.80;6.22;;;;;;;10.59;100.00;100190.44;5064068;28;20029;-67
2022/06/22 03:44:19;;;;;;;9.30;6.60;;;;;;;10.73;100.00;100210.72;5055490;28;20074;-67
2022/06/22 03:46:54;;;;;;;11.07;7.20;;;;;;;10.70;100.00;100214.34;5050606;28;20029;-67
2022/06/22 03:49:32;;;;;;;10.00;7.15;;;;;;;10.62;100.00;100211.28;5065087;28;20841;-67
2022/06/22 03:52:06;;;;;;;8.38;6.63;;;;;;;10.67;100.00;100213.66;5069339;28;20032;-67
2022/06/22 03:54:46;;;;;;;10.63;7.28;;;;;;;10.60;100.00;100207.03;5077185;28;20039;-67
2022/06/22 03:57:16;;;;;;;15.43;7.47;;;;;;;10.51;100.00;100197.03;5065329;28;20076;-67
2022/06/22 03:59:44;;;;;;;10.07;8.57;;;;;;;10.51;100.00;100195.22;5049664;28;20029;-67
2022/06/22 04:02:10;;;;;;;10.73;8.65;;;;;;;10.44;100.00;100180.75;5089918;28;20036;-67
2022/06/22 04:04:36;;;;;;;10.50;9.13;;;;;;;10.56;100.00;100198.47;5086839;28;20027;-66
2022/06/22 04:07:01;;;;;;;12.68;9.57;;;;;;;10.59;100.00;100197.47;5082415;28;20028;-66
2022/06/22 04:09:28;;;;;;;12.35;9.93;;;;;;;10.68;100.00;100208.31;5063345;28;20052;-66
2022/06/22 04:12:04;;;;;;;15.02;9.48;;;;;;;10.75;100.00;100199.19;5071388;28;20071;-66
2022/06/22 04:14:32;;;;;;;9.98;8.40;;;;;;;10.81;100.00;100198.00;5061240;28;20542;-66
2022/06/22 04:17:03;;;;;;;10.35;8.95;;;;;;;10.78;100.00;100175.34;5072176;28;20358;-65
2022/06/22 04:19:33;;;;;;;11.18;9.23;;;;;;;10.92;100.00;100195.63;5054849;28;20517;-67
2022/06/22 04:22:03;;;;;;;18.58;10.98;;;;;;;10.98;100.00;100199.72;5051893;28;20031;-67
2022/06/22 04:24:32;;;;;;;13.82;11.00;;;;;;;10.98;100.00;100184.81;5067671;28;20032;-67
2022/06/22 04:27:00;;;;;;;16.55;12.82;;;;;;;11.14;100.00;100196.16;5085733;28;20138;-67
2022/06/22 04:29:40;;;;;;;13.00;11.50;;;;;;;11.25;100.00;100201.63;5058686;28;20490;-67
2022/06/22 04:32:28;;;;;;;15.10;11.90;;;;;;;11.41;100.00;100198.16;5084098;28;20036;-68
2022/06/22 04:35:02;;;;;;;14.27;12.90;;;;;;;11.41;100.00;100185.00;5054960;28;20020;-67
2022/06/22 04:37:50;;;;;;;14.65;10.27;;;;;;;11.57;100.00;100194.56;5084930;28;20032;-67
2022/06/22 04:40:29;;;;;;;14.38;12.88;;;;;;;11.65;100.00;100188.88;5069754;28;20035;-67
2022/06/22 04:43:04;;;;;;;18.02;14.82;;;;;;;11.70;100.00;100173.63;5071488;28;20191;-67
2022/06/22 04:45:32;;;;;;;18.08;14.93;;;;;;;11.77;100.00;100175.88;5068462;28;20056;-67
2022/06/22 04:48:02;;;;;;;13.98;12.18;;;;;;;11.97;100.00;100179.94;5082679;28;20036;-67
2022/06/22 04:50:28;;;;;;;11.70;10.52;;;;;;;12.00;100.00;100166.59;5070080;28;20036;-67
2022/06/22 04:52:55;;;;;;;14.65;13.15;;;;;;;12.17;100.00;100187.50;5078498;28;20024;-67
2022/06/22 04:55:23;;;;;;;15.07;13.45;;;;;;;12.19;100.00;100166.34;5069446;28;20036;-67
2022/06/22 04:57:51;;;;;;;17.95;13.60;;;;;;;12.43;100.00;100188.59;5075364;28;20382;-67
2022/06/22 05:00:20;;;;;;;15.27;13.45;;;;;;;12.54;100.00;100196.66;5074154;28;20030;-67
2022/06/22 05:02:48;;;;;;;15.60;9.80;;;;;;;12.59;100.00;100184.06;5087947;28;20031;-67
2022/06/22 05:05:26;;;;;;;15.95;10.20;;;;;;;12.75;100.00;100184.78;5077803;28;20029;-67
2022/06/22 05:08:03;;;;;;;15.38;10.57;;;;;;;12.90;100.00;100190.91;5090937;28;20077;-68
2022/06/22 05:10:47;;;;;;;12.68;9.95;;;;;;;13.02;100.00;100184.84;5090915;28;20036;-67
2022/06/22 05:13:17;;;;;;;12.77;9.73;;;;;;;13.16;100.00;100179.56;5075084;28;20020;-68
2022/06/22 05:15:44;;;;;;;11.60;8.88;;;;;;;13.02;100.00;100137.38;5069209;28;20027;-67
2022/06/22 05:18:31;;;;;;;12.23;8.77;;;;;;;13.43;100.00;100189.28;5054727;28;20436;-67
2022/06/22 05:21:00;;;;;;;12.82;9.43;;;;;;;13.55;100.00;100193.78;5060079;28;20916;-67
2022/06/22 05:23:28;;;;;;;11.70;8.65;;;;;;;13.63;100.00;100183.53;5087455;28;20111;-67
2022/06/22 05:25:56;;;;;;;19.23;9.45;;;;;;;13.66;100.00;100185.97;5095670;28;20115;-67
2022/06/22 05:28:42;;;;;;;14.07;8.82;;;;;;;13.72;100.00;100191.69;5076931;28;20073;-67
2022/06/22 05:31:22;;;;;;;14.63;8.57;;;;;;;13.79;100.00;100198.25;5064518;28;20394;-68
2022/06/22 05:33:48;;;;;;;12.20;8.18;;;;;;;13.79;100.00;100189.47;5068335;28;20024;-67
2022/06/22 05:36:18;;;;;;;11.32;7.97;;;;;;;13.92;100.00;100202.75;5067656;28;20047;-67
2022/06/22 05:38:45;;;;;;;11.43;8.38;;;;;;;13.66;100.00;100147.22;5088381;28;20012;-67
2022/06/22 05:41:13;;;;;;;9.57;8.32;;;;;;;13.83;100.00;100173.34;5065827;28;20029;-67
2022/06/22 05:43:39;;;;;;;17.10;8.02;;;;;;;14.08;100.00;100204.25;5056758;28;20047;-67
2022/06/22 05:46:06;;;;;;;12.05;8.70;;;;;;;14.09;100.00;100197.97;5064090;28;20036;-67
2022/06/22 05:48:33;;;;;;;11.98;7.80;;;;;;;14.28;100.00;100219.59;5068089;28;20142;-68
2022/06/22 05:51:02;;;;;;;14.35;8.45;;;;;;;14.41;100.00;100226.69;5086979;28;20110;-68
2022/06/22 05:53:35;;;;;;;11.35;8.10;;;;;;;14.51;100.00;100230.41;5084247;28;20029;-68
2022/06/22 05:56:12;;;;;;;10.60;7.35;;;;;;;14.62;100.00;100223.44;5061583;28;20107;-68
2022/06/22 05:58:46;;;;;;;11.82;7.20;;;;;;;14.77;100.00;100225.00;5056306;28;20029;-67
2022/06/22 06:01:35;;;;;;;;;;;;;;;14.92;100.00;100236.31;5062937;28;20111;-68
2022/06/22 06:04:09;;;;;;;14.32;8.18;;;;;;;15.02;100.00;100245.28;5065545;28;19912;-68
2022/06/22 06:06:39;;;;;;;12.63;8.02;;;;;;;15.03;100.00;100224.97;5068403;28;20032;-68
2022/06/22 06:09:06;;;;;;;10.48;8.20;;;;;;;14.95;100.00;100190.25;5057331;28;20108;-67
2022/06/22 06:11:41;;;;;;;17.92;8.75;;;;;;;15.28;100.00;100236.31;5093496;28;20020;-67
2022/06/22 06:14:19;;;;;;;13.18;8.63;;;;;;;15.34;100.00;100235.03;5076513;28;20033;-67
2022/06/22 06:16:48;;;;;;;13.57;8.57;;;;;;;15.29;100.00;100231.88;5091379;28;20055;-67
2022/06/22 06:19:18;;;;;;;8.85;6.97;;;;;;;15.33;100.00;100234.19;5065243;28;20028;-68
2022/06/22 06:21:43;;;;;;;16.75;9.00;;;;;;;15.46;100.00;100254.47;5047622;28;20716;-68
2022/06/22 06:24:23;;;;;;;12.40;9.73;;;;;;;15.56;100.00;100255.53;5073338;28;20059;-68
2022/06/22 06:30:01;;;;;;;10.98;7.93;;;;;;;15.70;100.00;100258.88;5036992;28;20097;-68
2022/06/22 06:32:51;;;;;;;14.52;10.70;;;;;;;15.80;100.00;100254.59;5060672;28;20046;-67
2022/06/22 06:35:22;;;;;;;16.20;10.65;;;;;;;15.93;100.00;100248.38;5050688;28;20082;-67
2022/06/22 06:38:15;;;;;;;16.10;10.90;;;;;;;16.05;100.00;100236.84;5048906;28;20508;-67
2022/06/22 06:40:46;;;;;;;17.25;10.13;;;;;;;16.14;100.00;100237.00;5062141;28;20067;-67
2022/06/22 06:43:31;;;;;;;16.45;10.80;;;;;;;16.25;100.00;100234.41;5043804;28;20123;-68
2022/06/22 06:45:59;;;;;;;14.43;10.85;;;;;;;16.31;100.00;100244.53;5062101;28;20113;-67
2022/06/22 06:48:25;;;;;;;13.75;9.48;;;;;;;16.38;100.00;100238.75;5048303;28;20487;-67
2022/06/22 06:50:54;;;;;;;17.67;12.05;;;;;;;16.45;100.00;100237.31;5082164;28;20024;-68
2022/06/22 06:53:39;;;;;;;16.48;11.57;;;;;;;16.45;100.00;100239.97;5050505;28;20024;-68
2022/06/22 06:56:32;;;;;;;17.17;11.93;;;;;;;16.53;100.00;100229.59;5061299;28;20644;-68
2022/06/22 06:59:01;;;;;;;12.90;10.18;;;;;;;16.52;100.00;100225.28;5055471;28;20032;-68
2022/06/22 07:01:35;;;;;;;16.33;12.07;;;;;;;16.66;100.00;100230.38;5062830;28;20031;-68
2022/06/22 07:04:07;;;;;;;15.13;10.52;;;;;;;16.75;100.00;100237.63;5036017;28;20865;-68
2022/06/22 07:06:33;;;;;;;15.55;11.48;;;;;;;16.78;100.00;100238.22;5027698;28;20121;-67
2022/06/22 07:09:21;;;;;;;20.52;11.55;;;;;;;16.82;100.00;100212.28;5069010;28;20040;-68
2022/06/22 07:11:49;;;;;;;18.42;9.27;;;;;;;16.93;100.00;100204.34;5070632;28;20768;-68
2022/06/22 07:14:38;;;;;;;15.23;9.95;;;;;;;17.07;100.00;100217.31;5080886;28;20026;-68
2022/06/22 07:17:11;;;;;;;12.27;9.27;;;;;;;17.18;100.00;100212.00;5058992;28;20055;-68
2022/06/22 07:19:55;;;;;;;14.10;10.23;;;;;;;17.28;100.00;100207.66;5063067;28;20031;-68
2022/06/22 07:22:32;;;;;;;12.43;9.65;;;;;;;17.37;100.00;100209.53;5045897;28;20076;-68
2022/06/22 07:25:21;;;;;;;15.70;9.85;;;;;;;17.48;100.00;100205.16;5074130;28;20059;-68
2022/06/22 07:27:53;;;;;;;10.93;9.00;;;;;;;17.46;100.00;100192.03;5071972;28;20111;-68
2022/06/22 07:30:33;;;;;;;19.33;9.82;;;;;;;17.43;100.00;100167.53;5076973;28;20024;-67
2022/06/22 07:33:12;;;;;;;12.90;8.60;;;;;;;17.71;100.00;100198.88;5074934;28;20055;-68
2022/06/22 07:35:46;;;;;;;13.70;10.07;;;;;;;17.75;100.00;100202.94;5053947;28;20035;-68
2022/06/22 07:38:36;;;;;;;24.70;10.40;;;;;;;17.80;100.00;100208.72;5067081;28;20043;-68
2022/06/22 07:41:20;;;;;;;12.45;9.90;;;;;;;17.90;100.00;100211.47;5067124;28;20036;-68
2022/06/22 07:43:48;;;;;;;19.57;11.13;;;;;;;17.95;100.00;100215.41;5077115;28;20063;-67
2022/06/22 07:46:19;;;;;;;13.13;9.38;;;;;;;17.98;100.00;100207.16;5050960;28;20020;-67
2022/06/22 07:48:47;;;;;;;15.20;9.80;;;;;;;18.05;100.00;100194.19;5076557;28;20032;-68
2022/06/22 07:51:17;;;;;;;11.60;8.38;;;;;;;18.11;100.00;100199.88;5074600;28;20111;-68
2022/06/22 07:53:46;;;;;;;20.40;9.93;;;;;;;18.29;100.00;100218.72;5060950;28;20028;-68
2022/06/22 07:56:16;;;;;;;6.30;4.80;;;;;;;18.30;100.00;100210.63;5074281;28;20020;-68
2022/06/22 07:58:48;;;;;;;6.25;4.22;;;;;;;18.46;100.00;100226.13;5072938;28;20032;-68
2022/06/22 08:01:20;;;;;;;7.25;3.80;;;;;;;18.52;100.00;100219.47;5059870;28;20032;-68
2022/06/22 08:03:59;;;;;;;8.40;4.30;;;;;;;18.64;100.00;100207.75;5074497;28;20060;-68
2022/06/22 08:06:29;;;;;;;9.80;5.32;;;;;;;18.71;100.00;100204.44;5054248;28;20118;-68
2022/06/22 08:09:00;;;;;;;5.88;3.72;;;;;;;18.79;100.00;100209.09;5041468;28;20100;-67
2022/06/22 08:11:36;;;;;;;7.80;3.75;;;;;;;18.78;100.00;100199.44;5051161;28;20036;-67
2022/06/22 08:14:06;;;;;;;9.38;4.10;;;;;;;18.87;100.00;100227.91;5053478;28;20047;-68
2022/06/22 08:16:44;;;;;;;6.22;3.78;;;;;;;18.73;100.00;100214.94;5085383;28;20447;-68
2022/06/22 08:19:10;;;;;;;5.88;4.05;;;;;;;18.76;100.00;100227.97;5054362;28;20016;-68
2022/06/22 08:21:44;;;;;;;7.18;3.90;;;;;;;18.85;100.00;100232.53;5072238;28;20035;-68
2022/06/22 08:24:12;;;;;;;7.25;4.55;;;;;;;18.83;100.00;100205.19;5076231;28;20020;-67
2022/06/22 08:26:37;;;;;;;8.68;3.85;;;;;;;19.10;100.00;100231.19;5059250;28;20039;-67
2022/06/22 08:29:03;;;;;;;9.60;5.25;;;;;;;19.12;100.00;100227.44;5047693;28;20655;-68
2022/06/22 08:31:31;;;;;;;7.72;3.58;;;;;;;19.20;100.00;100227.59;5054841;28;20035;-68
2022/06/22 08:33:58;;;;;;;7.03;4.28;;;;;;;19.25;100.00;100225.38;5041105;28;20066;-67
2022/06/22 08:36:34;;;;;;;6.63;4.68;;;;;;;19.31;100.00;100214.16;5058951;28;20482;-68
2022/06/22 08:39:07;;;;;;;5.05;3.60;;;;;;;19.54;100.00;100227.28;5089198;28;20028;-68
2022/06/22 08:41:49;;;;;;;9.07;4.45;;;;;;;19.67;100.00;100220.69;5072079;28;20044;-67
2022/06/22 08:44:44;;;;;;;6.03;3.65;;;;;;;19.71;100.00;100226.59;5043313;28;20095;-67
2022/06/22 08:47:38;;;;;;;5.45;3.55;;;;;;;19.81;100.00;100232.78;5084188;28;20143;-67
2022/06/22 08:50:27;;;;;;;4.32;2.05;;;;;;;19.97;100.00;100227.75;5030488;28;20033;-68
2022/06/22 08:53:07;;;;;;;4.03;1.83;;;;;;;20.08;100.00;100224.91;5045740;28;20455;-67
2022/06/22 08:55:46;;;;;;;6.35;2.90;;;;;;;20.13;100.00;100217.34;5050603;28;20028;-68
2022/06/22 08:58:17;;;;;;;6.82;3.45;;;;;;;20.20;100.00;100210.44;5061166;28;20035;-68
2022/06/22 09:01:03;;;;;;;3.05;1.95;;;;;;;20.33;100.00;100224.38;5078259;28;20039;-68
2022/06/22 09:03:53;;;;;;;4.80;2.60;;;;;;;20.43;100.00;100216.31;5071530;28;20036;-68
2022/06/22 09:06:49;;;;;;;8.45;3.20;;;;;;;20.53;100.00;100214.47;5076279;28;20040;-68
2022/06/22 09:09:17;;;;;;;8.95;3.35;;;;;;;20.58;100.00;100222.06;5064094;28;20097;-68
2022/06/22 09:12:03;;;;;;;5.85;2.85;;;;;;;20.53;100.00;100206.47;5070111;28;20098;-68
2022/06/22 09:14:31;;;;;;;5.35;2.58;;;;;;;20.75;100.00;100218.63;5078896;28;20032;-68
2022/06/22 09:17:07;;;;;;;4.30;2.38;;;;;;;20.80;100.00;100216.34;5089893;28;20020;-68
2022/06/22 09:19:35;;;;;;;9.48;2.55;;;;;;;20.84;100.00;100215.91;5086668;28;20028;-68
2022/06/22 09:22:10;;;;;;;4.65;2.50;;;;;;;20.85;100.00;100203.41;5056843;28;20029;-68
2022/06/22 09:24:51;;;;;;;7.20;2.78;;;;;;;20.99;100.00;100200.22;5091581;28;20034;-68
2022/06/22 09:27:19;;;;;;;8.50;2.92;;;;;;;21.08;100.00;100203.84;5041860;28;20036;-68
2022/06/22 09:30:00;;;;;;;5.10;2.97;;;;;;;21.09;98.33;100202.88;5057076;28;20029;-67
2022/06/22 09:33:04;;;;;;;4.35;2.53;;;;;;;21.18;100.00;100205.53;5069777;28;20029;-68
2022/06/22 09:36:10;;;;;;;6.95;2.10;;;;;;;21.27;98.46;100190.41;5085267;28;20486;-67
2022/06/22 09:39:09;;;;;;;4.45;2.15;;;;;;;21.42;97.98;100174.69;5061380;28;20044;-68
2022/06/22 09:42:21;;;;;;;4.57;2.55;;;;;;;21.52;98.97;100186.16;5090928;28;20034;-68
2022/06/22 09:45:17;;;;;;;3.95;2.30;;;;;;;21.59;96.84;100189.91;5042572;28;20040;-68
2022/06/22 09:47:58;;;;;;;4.53;2.28;;;;;;;21.69;95.78;100188.00;5079158;28;20047;-68
2022/06/22 09:50:44;;;;;;;4.32;2.60;;;;;;;21.76;96.33;100183.72;5080465;28;20174;-68
2022/06/22 09:53:40;;;;;;;5.63;2.67;;;;;;;21.77;96.23;100169.34;5095057;28;20035;-68
2022/06/22 09:56:30;;;;;;;5.85;2.15;;;;;;;21.90;95.15;100184.03;5061698;28;20478;-68
2022/06/22 09:59:35;;;;;;;6.93;3.00;;;;;;;22.00;94.53;100185.81;5086332;28;20485;-68
2022/06/22 10:02:03;;;;;;;5.22;2.80;;;;;;;22.01;93.20;100187.47;4990279;28;20034;-68
2022/06/22 10:05:23;;;;;;;6.47;3.13;;;;;;;22.04;93.76;100177.28;5058439;28;20075;-68
2022/06/22 10:07:55;;;;;;;4.70;2.83;;;;;;;22.05;92.04;100162.06;5030602;28;20048;-67
2022/06/22 10:10:35;;;;;;;5.90;2.75;;;;;;;22.17;95.18;100166.19;5072645;28;20141;-68
2022/06/22 10:13:38;;;;;;;6.20;2.80;;;;;;;22.35;92.13;100175.84;5077432;28;20039;-67
2022/06/22 10:16:25;;;;;;;8.07;2.53;;;;;;;22.49;93.86;100173.59;5078088;28;20550;-68
2022/06/22 10:19:03;;;;;;;3.22;1.73;;;;;;;22.60;91.19;100167.97;5071828;28;20100;-68
2022/06/22 10:21:32;;;;;;;4.95;2.33;;;;;;;22.75;91.39;100177.09;5084694;28;20060;-67
2022/06/22 10:24:09;;;;;;;11.32;2.50;;;;;;;22.72;90.42;100155.97;5070387;28;20020;-68
2022/06/22 10:26:48;;;;;;;5.78;2.00;;;;;;;22.83;91.31;100175.31;5069731;28;20032;-68
2022/06/22 10:29:31;;;;;;;6.50;2.47;;;;;;;22.87;91.21;100176.69;5071157;28;20056;-68
2022/06/22 10:32:09;;;;;;;4.90;2.28;;;;;;;22.97;89.86;100181.91;5091916;28;20024;-67
2022/06/22 10:35:00;;;;;;;6.53;2.92;;;;;;;23.04;90.01;100177.56;5081540;28;20150;-68
2022/06/22 10:37:38;;;;;;;7.15;3.17;;;;;;;23.06;88.56;100185.44;5059127;28;20048;-68
2022/06/22 10:45:08;;;;;;;7.20;2.85;;;;;;;23.13;89.33;100186.47;5064399;28;20033;-68
2022/06/22 10:46:09;;;;;;;8.40;3.25;;;;;;;23.28;85.52;100185.69;5062241;28;20059;-68
2022/06/22 10:48:56;;;;;;;6.97;3.53;;;;;;;23.40;86.64;100189.78;5074925;28;20032;-68
2022/06/22 10:52:06;;;;;;;4.50;2.60;;;;;;;23.39;83.62;100190.72;5081733;28;20401;-68
2022/06/22 10:54:53;;;;;;;6.82;3.00;;;;;;;23.44;83.81;100184.91;5032540;28;20472;-68
2022/06/22 10:57:38;;;;;;;5.10;2.72;;;;;;;23.30;84.48;100189.03;5073251;28;20047;-68
2022/06/22 11:00:12;;;;;;;6.18;2.58;;;;;;;23.42;83.77;100182.38;5065469;28;20050;-69
2022/06/22 11:02:59;;;;;;;4.80;2.73;;;;;;;23.66;83.95;100168.19;5084786;28;20024;-69
2022/06/22 11:05:48;;;;;;;6.63;2.80;;;;;;;23.93;83.26;100175.06;5064923;28;20032;-68
2022/06/22 11:08:32;;;;;;;5.60;3.03;;;;;;;24.08;78.80;100177.91;5045407;28;20029;-68
2022/06/22 11:11:12;;;;;;;10.18;2.92;;;;;;;24.08;79.75;100156.44;5069839;28;20044;-68
2022/06/22 11:13:52;;;;;;;6.22;3.35;;;;;;;24.37;77.32;100171.03;5080489;28;20390;-67
2022/06/22 11:16:24;;;;;;;8.98;2.70;;;;;;;24.43;77.16;100178.41;5078387;28;20085;-68
2022/06/22 11:19:05;;;;;;;8.63;3.00;;;;;;;24.65;78.05;100176.00;5074318;28;20052;-69
2022/06/22 11:21:58;;;;;;;5.63;2.45;;;;;;;24.69;74.43;100169.28;5092271;28;20024;-68
2022/06/22 11:24:42;;;;;;;4.50;2.50;;;;;;;24.87;75.89;100164.53;5064764;28;20466;-67
2022/06/22 11:33:25;;;;;;;4.13;2.13;;;;;;;25.74;78.43;100161.53;5037257;28;20104;-68
2022/06/22 11:36:16;;;;;;;6.65;3.28;;;;;;;26.07;71.54;100170.16;5056120;28;20119;-67
2022/06/22 11:38:49;;;;;;;4.35;2.20;;;;;;;26.27;73.12;100168.66;5065647;28;20783;-68
2022/06/22 11:41:33;;;;;;;6.60;3.60;;;;;;;26.53;70.94;100178.19;5081932;28;20036;-68
2022/06/22 11:44:16;;;;;;;5.50;2.95;;;;;;;27.34;72.85;100184.25;5063198;28;20028;-68
2022/06/22 11:46:52;;;;;;;13.07;2.20;;;;;;;28.67;72.26;100162.84;5080800;28;20024;-68
2022/06/22 11:49:18;;;;;;;9.35;2.05;;;;;;;30.09;66.19;100181.66;5069221;28;20070;-68
2022/06/22 11:52:19;;;;;;;411.15;90.68;;;;;;;31.52;64.34;100181.53;5081477;28;20024;-68
2022/06/22 11:54:51;;;;;;;505.42;204.85;;;;;;;32.53;60.42;100159.63;5073963;28;20038;-69
2022/06/22 11:57:47;;;;;;;483.13;61.20;;;;;;;33.61;57.45;100187.88;5069010;28;20085;-68
2022/06/22 12:00:27;;;;;;;4.63;1.73;;;;;;;33.79;50.66;100177.78;5026272;28;20123;-68
2022/06/22 12:03:09;;;;;;;113.18;15.35;;;;;;;33.77;52.39;100159.97;5056258;28;20505;-69
2022/06/22 12:05:59;;;;;;;7.28;3.88;;;;;;;34.03;48.81;100156.84;5062224;28;20116;-69
2022/06/22 12:08:51;;;;;;;8.93;3.28;;;;;;;34.37;48.24;100166.13;5079409;28;20129;-69
2022/06/22 12:11:35;;;;;;;8.85;3.25;;;;;;;34.63;47.07;100167.56;5048817;28;20048;-68
2022/06/22 12:17:21;;;;;;;9.98;3.63;;;;;;;35.25;43.36;100166.72;5069402;28;20043;-67
2022/06/22 12:20:21;;;;;;;8.90;2.97;;;;;;;35.20;41.70;100166.63;5071778;28;20111;-67